Time;durP1;ratioP1;P1;durP2;ratioP2;P2;SDS_P1;SDS_P2;PMS_P1;PMS_P2;Temp;Humidity;BMP_temperature;BMP_pressure;BME280_temperature;BME280_humidity;BME280_pressure;Samples;Min_cycle;Max_cycle;Signal;HPM_P1;HPM_P2
2021/01/10 00:00:11;;;;;;;0.00;0.00;;;-1.50;99.90;;;;;;4989583;28;20039;-85
2021/01/10 00:02:36;;;;;;;0.00;0.00;;;-1.50;99.90;;;;;;4990011;28;20110;-84
2021/01/10 00:05:05;;;;;;;0.00;0.00;;;-1.50;99.90;;;;;;4989893;28;20039;-84
2021/01/10 00:07:30;;;;;;;0.00;0.00;;;-1.60;99.90;;;;;;5006154;28;20043;-84
2021/01/10 00:09:56;;;;;;;17.10;3.33;;;-1.30;99.90;;;;;;4989922;28;20035;-84
2021/01/10 00:12:26;;;;;;;0.08;0.00;;;-1.40;99.90;;;;;;4989627;28;20046;-84
2021/01/10 00:14:52;;;;;;;0.00;0.00;;;-1.40;99.90;;;;;;4989747;28;20066;-84
2021/01/10 00:17:18;;;;;;;0.75;0.75;;;-1.40;99.90;;;;;;4986472;28;20422;-84
2021/01/10 00:19:45;;;;;;;0.90;0.90;;;-1.50;99.90;;;;;;4986538;28;20077;-85
2021/01/10 00:22:12;;;;;;;0.00;0.00;;;-1.70;99.90;;;;;;4986891;28;20106;-84
2021/01/10 00:24:38;;;;;;;0.00;0.00;;;-1.80;99.90;;;;;;4987104;28;20050;-84
2021/01/10 00:27:11;;;;;;;1.67;1.45;;;-1.70;99.90;;;;;;4986414;28;20186;-84
2021/01/10 00:29:37;;;;;;;0.00;0.00;;;-1.70;99.90;;;;;;5002345;28;20046;-85
2021/01/10 00:32:04;;;;;;;0.00;0.00;;;-1.80;99.90;;;;;;5005569;28;20285;-84
2021/01/10 00:34:30;;;;;;;0.00;0.00;;;-1.80;99.90;;;;;;5005735;28;20121;-85
2021/01/10 00:36:56;;;;;;;0.00;0.00;;;-1.70;99.90;;;;;;5005594;28;20051;-84
2021/01/10 00:39:21;;;;;;;0.00;0.00;;;-1.70;99.90;;;;;;4988676;28;20082;-85
2021/01/10 00:41:47;;;;;;;0.20;0.20;;;-1.80;99.90;;;;;;5005494;28;20031;-84
2021/01/10 00:44:13;;;;;;;0.00;0.00;;;-1.80;99.90;;;;;;4989486;28;20054;-84
2021/01/10 00:46:38;;;;;;;0.00;0.00;;;-1.80;99.90;;;;;;4989368;28;20070;-84
2021/01/10 00:49:04;;;;;;;0.00;0.00;;;-1.90;99.90;;;;;;4989513;28;20379;-84
2021/01/10 00:51:30;;;;;;;0.00;0.00;;;-1.90;99.90;;;;;;4989236;28;20039;-84
2021/01/10 00:54:20;;;;;;;0.00;0.00;;;-2.00;99.90;;;;;;4989167;28;20044;-85
2021/01/10 00:56:48;;;;;;;0.00;0.00;;;-2.00;99.90;;;;;;4929583;29;20082;-84
2021/01/10 00:59:15;;;;;;;1.10;1.08;;;-2.00;99.90;;;;;;4949787;29;20050;-84
2021/01/10 01:01:42;;;;;;;0.00;0.00;;;-2.00;99.90;;;;;;4949794;29;20035;-84
2021/01/10 01:04:08;;;;;;;0.00;0.00;;;-2.00;99.90;;;;;;4949677;29;20066;-84
2021/01/10 01:06:33;;;;;;;0.00;0.00;;;-2.00;99.90;;;;;;4949658;29;20086;-84
2021/01/10 01:08:59;;;;;;;0.00;0.00;;;-2.00;99.90;;;;;;4949516;29;20047;-84
2021/01/10 01:11:33;;;;;;;0.00;0.00;;;-2.10;99.90;;;;;;4949424;29;20039;-84
2021/01/10 01:13:59;;;;;;;0.00;0.00;;;-2.10;99.90;;;;;;4949760;29;20043;-84
2021/01/10 01:16:25;;;;;;;0.00;0.00;;;-2.20;99.90;;;;;;4945280;29;20040;-83
2021/01/10 01:18:51;;;;;;;0.38;0.38;;;-2.10;99.90;;;;;;4949716;29;20056;-84
2021/01/10 01:21:17;;;;;;;0.00;0.00;;;-2.20;99.90;;;;;;4933489;29;20045;-84
2021/01/10 01:23:43;;;;;;;0.00;0.00;;;-2.20;99.90;;;;;;4949361;29;20052;-84
2021/01/10 01:26:20;;;;;;;0.00;0.00;;;-2.30;99.90;;;;;;4933490;29;20043;-84
2021/01/10 01:28:46;;;;;;;0.00;0.00;;;-2.30;99.90;;;;;;4933765;29;20043;-84
2021/01/10 01:31:17;;;;;;;0.00;0.00;;;-2.20;99.90;;;;;;4949399;29;20095;-84
2021/01/10 01:33:44;;;;;;;0.30;0.30;;;-2.10;99.90;;;;;;4978718;28;20121;-84
2021/01/10 01:36:18;;;;;;;0.00;0.00;;;-2.20;99.90;;;;;;4992038;28;20037;-84
2021/01/10 01:38:45;;;;;;;0.00;0.00;;;-2.30;99.90;;;;;;5008446;28;20077;-84
2021/01/10 01:41:11;;;;;;;0.00;0.00;;;-2.30;99.90;;;;;;5008180;28;20069;-84
2021/01/10 01:43:38;;;;;;;0.00;0.00;;;-2.20;99.90;;;;;;5008491;28;20034;-84
2021/01/10 01:46:06;;;;;;;0.00;0.00;;;-2.30;99.90;;;;;;4992154;28;20130;-84
2021/01/10 01:48:32;;;;;;;0.00;0.00;;;-2.20;99.90;;;;;;4992046;28;20122;-84
2021/01/10 01:50:59;;;;;;;0.00;0.00;;;-2.30;99.90;;;;;;4992635;28;20057;-84
2021/01/10 01:53:26;;;;;;;0.00;0.00;;;-2.30;99.90;;;;;;4995797;28;20068;-84
2021/01/10 01:55:56;;;;;;;0.00;0.00;;;-2.30;99.90;;;;;;5011680;28;20044;-84
2021/01/10 01:58:22;;;;;;;;;;;-2.40;99.90;;;;;;4995805;28;20145;-86
2021/01/10 02:00:48;;;;;;;0.00;0.00;;;-2.40;99.90;;;;;;4995419;28;19955;-85
2021/01/10 02:03:41;;;;;;;0.00;0.00;;;-2.40;99.90;;;;;;5011675;28;20046;-85
2021/01/10 02:06:21;;;;;;;0.00;0.00;;;-2.50;99.90;;;;;;4990913;28;20034;-86
2021/01/10 02:08:50;;;;;;;0.00;0.00;;;-2.50;99.90;;;;;;5011848;28;20490;-86
2021/01/10 02:11:17;;;;;;;0.00;0.00;;;-2.50;99.90;;;;;;5011449;28;20038;-86
2021/01/10 02:13:46;;;;;;;0.00;0.00;;;-2.50;99.90;;;;;;5011706;28;20034;-86
2021/01/10 02:16:12;;;;;;;0.00;0.00;;;-2.50;99.90;;;;;;5000773;28;20038;-86
2021/01/10 02:18:38;;;;;;;0.00;0.00;;;-2.50;99.90;;;;;;5014411;28;20060;-85
2021/01/10 02:21:09;;;;;;;0.30;0.30;;;-2.40;99.90;;;;;;5014708;28;20053;-86
2021/01/10 02:23:38;;;;;;;0.00;0.00;;;-2.60;99.90;;;;;;5014761;28;20037;-86
2021/01/10 02:26:05;;;;;;;0.88;0.88;;;-2.30;99.90;;;;;;5014549;28;20040;-86
2021/01/10 02:28:32;;;;;;;0.00;0.00;;;-2.40;99.90;;;;;;5030925;28;20049;-86
2021/01/10 02:31:02;;;;;;;0.00;0.00;;;-2.50;99.90;;;;;;5030653;28;20039;-86
2021/01/10 02:33:28;;;;;;;;;;;-2.60;99.90;;;;;;5031255;28;20112;-86
2021/01/10 02:35:55;;;;;;;0.00;0.00;;;-2.60;99.90;;;;;;5014437;28;20034;-86
2021/01/10 02:38:33;;;;;;;0.00;0.00;;;-2.60;99.90;;;;;;5030759;28;20084;-86
2021/01/10 02:41:25;;;;;;;4.72;4.47;;;-2.60;99.90;;;;;;5030637;28;20046;-86
2021/01/10 02:44:07;;;;;;;0.00;0.00;;;-2.60;99.90;;;;;;5014340;28;20052;-86
2021/01/10 02:46:35;;;;;;;0.00;0.00;;;-2.30;99.90;;;;;;5030410;28;20048;-85
2021/01/10 02:49:02;;;;;;;0.00;0.00;;;-2.10;99.90;;;;;;5030511;28;20053;-85
2021/01/10 02:51:28;;;;;;;0.00;0.00;;;-2.30;99.90;;;;;;5013977;28;20038;-85
2021/01/10 02:54:14;;;;;;;0.00;0.00;;;-2.30;99.90;;;;;;5014246;28;20041;-85
2021/01/10 02:56:48;;;;;;;0.00;0.00;;;-2.30;99.90;;;;;;5029608;23;20049;-86
2021/01/10 02:59:21;;;;;;;0.00;0.00;;;-2.20;99.90;;;;;;5031058;28;20211;-85
2021/01/10 03:01:48;;;;;;;0.10;0.10;;;-2.30;99.90;;;;;;5030596;28;20072;-85
2021/01/10 03:04:15;;;;;;;0.00;0.00;;;-2.10;99.90;;;;;;5029799;28;20038;-86
2021/01/10 03:06:43;;;;;;;1.75;1.65;;;-2.10;99.90;;;;;;5030404;28;20048;-85
2021/01/10 03:09:10;;;;;;;0.00;0.00;;;-2.10;99.90;;;;;;5030641;28;20042;-85
2021/01/10 03:11:39;;;;;;;0.00;0.00;;;-2.20;99.90;;;;;;5030211;28;20113;-86
2021/01/10 03:14:05;;;;;;;0.00;0.00;;;-2.30;99.90;;;;;;5030467;28;20068;-86
2021/01/10 03:16:33;;;;;;;0.00;0.00;;;-2.40;99.90;;;;;;5030264;28;20041;-86
2021/01/10 03:18:59;;;;;;;0.00;0.00;;;-2.30;99.90;;;;;;5013948;28;20041;-85
2021/01/10 03:21:24;;;;;;;0.00;0.00;;;-2.30;99.90;;;;;;5030172;28;20040;-86
2021/01/10 03:23:54;;;;;;;0.00;0.00;;;-2.50;99.90;;;;;;5014007;28;20045;-85
2021/01/10 03:26:21;;;;;;;1.02;1.02;;;-2.60;99.90;;;;;;5013716;28;20412;-85
2021/01/10 03:28:46;;;;;;;0.00;0.00;;;-2.60;99.90;;;;;;5030366;28;20041;-85
2021/01/10 03:31:12;;;;;;;0.00;0.00;;;-2.60;99.90;;;;;;5018896;28;20042;-85
2021/01/10 03:33:45;;;;;;;0.00;0.00;;;-2.70;99.90;;;;;;4994381;28;20040;-86
2021/01/10 03:36:12;;;;;;;0.00;0.00;;;-2.60;99.90;;;;;;4993888;28;20133;-85
2021/01/10 03:38:39;;;;;;;0.00;0.00;;;-2.60;99.90;;;;;;4993985;28;20054;-85
2021/01/10 03:41:05;;;;;;;0.00;0.00;;;-2.50;99.90;;;;;;5010027;28;20038;-85
2021/01/10 03:43:30;;;;;;;0.00;0.00;;;-2.40;99.90;;;;;;5010181;28;20038;-85
2021/01/10 03:45:56;;;;;;;0.00;0.00;;;-2.50;99.90;;;;;;4993707;28;20176;-87
2021/01/10 03:48:21;;;;;;;0.00;0.00;;;-2.60;99.90;;;;;;5009885;28;20030;-85
2021/01/10 03:50:47;;;;;;;0.00;0.00;;;-2.60;99.90;;;;;;4993623;28;20481;-86
2021/01/10 03:53:13;;;;;;;0.00;0.00;;;-2.50;99.90;;;;;;4993752;28;20042;-85
2021/01/10 03:55:38;;;;;;;0.00;0.00;;;-2.70;99.90;;;;;;4985480;28;20089;-86
2021/01/10 03:58:04;;;;;;;0.00;0.00;;;-2.70;99.90;;;;;;4973779;28;20063;-86
2021/01/10 04:00:30;;;;;;;0.00;0.00;;;-2.70;99.90;;;;;;4990053;28;20045;-86
2021/01/10 04:02:55;;;;;;;0.00;0.00;;;-2.70;99.90;;;;;;4973709;28;20041;-87
2021/01/10 04:05:21;;;;;;;0.00;0.00;;;-2.80;99.90;;;;;;4973763;28;20042;-86
2021/01/10 04:07:46;;;;;;;0.00;0.00;;;-2.80;99.90;;;;;;4973829;28;20042;-86
2021/01/10 04:10:12;;;;;;;0.00;0.00;;;-2.70;99.90;;;;;;4973947;28;20093;-87
2021/01/10 04:12:37;;;;;;;0.00;0.00;;;-2.50;99.90;;;;;;4973633;28;20046;-86
2021/01/10 04:15:04;;;;;;;0.00;0.00;;;-2.70;99.90;;;;;;4973492;28;20034;-86
2021/01/10 04:17:30;;;;;;;0.65;0.65;;;-2.80;99.90;;;;;;4989298;28;20050;-87
2021/01/10 04:19:55;;;;;;;0.00;0.00;;;-2.80;99.90;;;;;;4993188;28;20505;-87
2021/01/10 04:22:21;;;;;;;0.00;0.00;;;-2.80;99.90;;;;;;4992738;28;20042;-87
2021/01/10 04:24:48;;;;;;;0.00;0.00;;;-2.60;99.90;;;;;;5009104;28;20053;-86
2021/01/10 04:27:14;;;;;;;0.00;0.00;;;-2.70;99.90;;;;;;5009086;28;20058;-86
2021/01/10 04:29:39;;;;;;;0.00;0.00;;;-2.70;99.90;;;;;;5009049;28;20124;-87
2021/01/10 04:32:05;;;;;;;0.00;0.00;;;-2.50;99.90;;;;;;4992625;28;20069;-87
2021/01/10 04:34:31;;;;;;;0.00;0.00;;;-2.40;99.90;;;;;;5009018;28;20073;-86
2021/01/10 04:36:56;;;;;;;0.00;0.00;;;-2.50;99.90;;;;;;4992257;28;20049;-86
2021/01/10 04:39:22;;;;;;;0.00;0.00;;;-2.50;99.90;;;;;;4992784;28;20057;-87
2021/01/10 04:41:48;;;;;;;0.00;0.00;;;-2.60;99.90;;;;;;4992524;28;20045;-86
2021/01/10 04:44:14;;;;;;;0.00;0.00;;;-2.60;99.90;;;;;;4992416;28;20105;-87
2021/01/10 04:46:40;;;;;;;0.00;0.00;;;-2.70;99.90;;;;;;5008558;28;20069;-87
2021/01/10 04:49:07;;;;;;;0.00;0.00;;;-2.60;99.90;;;;;;4992483;28;20046;-87
2021/01/10 04:51:36;;;;;;;0.00;0.00;;;-2.60;99.90;;;;;;4992567;28;20038;-87
2021/01/10 04:54:23;;;;;;;0.00;0.00;;;-2.60;99.90;;;;;;4992427;28;20046;-87
2021/01/10 04:56:51;;;;;;;0.00;0.00;;;-2.50;99.90;;;;;;4983349;28;20054;-87
2021/01/10 04:59:17;;;;;;;0.00;0.00;;;-2.40;99.90;;;;;;4972162;28;20052;-87
2021/01/10 05:01:51;;;;;;;0.00;0.00;;;-2.40;99.90;;;;;;4988312;28;20054;-87
2021/01/10 05:04:17;;;;;;;0.00;0.00;;;-2.40;99.90;;;;;;4988608;28;20069;-87
2021/01/10 05:06:44;;;;;;;0.00;0.00;;;-2.40;99.90;;;;;;4988033;28;20045;-86
2021/01/10 05:09:10;;;;;;;0.00;0.00;;;-2.40;99.90;;;;;;4987972;28;20060;-87
2021/01/10 05:11:36;;;;;;;0.00;0.00;;;-2.40;99.90;;;;;;4988019;28;20053;-87
2021/01/10 05:14:04;;;;;;;0.00;0.00;;;-2.30;99.90;;;;;;4988189;28;20065;-87
2021/01/10 05:16:32;;;;;;;0.00;0.00;;;-2.40;99.90;;;;;;4983467;28;20578;-87
2021/01/10 05:18:59;;;;;;;0.00;0.00;;;-2.40;99.90;;;;;;4988289;28;20050;-87
2021/01/10 05:21:25;;;;;;;0.00;0.00;;;-2.30;99.90;;;;;;4987756;28;20054;-87
2021/01/10 05:23:53;;;;;;;0.00;0.00;;;-2.20;99.90;;;;;;4987641;28;20046;-87
2021/01/10 05:26:20;;;;;;;0.00;0.00;;;-2.10;99.90;;;;;;4989076;28;20442;-86
2021/01/10 05:28:46;;;;;;;0.00;0.00;;;-2.00;99.90;;;;;;4992054;28;20085;-87
2021/01/10 05:31:12;;;;;;;0.00;0.00;;;-2.00;99.90;;;;;;4992087;28;20046;-87
2021/01/10 05:33:48;;;;;;;0.00;0.00;;;-2.00;99.90;;;;;;5003525;28;20048;-87
2021/01/10 05:36:25;;;;;;;0.45;0.17;;;-2.10;99.90;;;;;;5032158;28;20045;-87
2021/01/10 05:38:51;;;;;;;0.00;0.00;;;-2.20;99.90;;;;;;5015423;28;20053;-87
2021/01/10 05:41:17;;;;;;;0.00;0.00;;;-2.30;99.90;;;;;;5031911;28;20065;-86
2021/01/10 05:44:03;;;;;;;0.00;0.00;;;-2.20;99.90;;;;;;5015425;28;20099;-87
2021/01/10 05:46:32;;;;;;;0.00;0.00;;;-2.10;99.90;;;;;;5015461;28;20061;-87
2021/01/10 05:48:59;;;;;;;0.00;0.00;;;-2.00;99.90;;;;;;5015126;28;20038;-87
2021/01/10 05:51:28;;;;;;;0.00;0.00;;;-2.10;99.90;;;;;;5031829;28;20041;-87
2021/01/10 05:54:32;;;;;;;0.00;0.00;;;-2.30;99.90;;;;;;5015073;28;20121;-86
2021/01/10 05:56:58;;;;;;;0.00;0.00;;;-2.40;99.90;;;;;;4971387;28;20066;-87
2021/01/10 05:59:24;;;;;;;0.00;0.00;;;-2.20;99.90;;;;;;4971975;28;20431;-87
2021/01/10 06:01:56;;;;;;;0.00;0.00;;;-2.10;99.90;;;;;;4971872;28;20043;-87
2021/01/10 06:04:23;;;;;;;0.00;0.00;;;-2.20;99.90;;;;;;4973858;28;20674;-87
2021/01/10 06:06:48;;;;;;;0.00;0.00;;;-2.30;99.90;;;;;;4973549;28;20039;-87
2021/01/10 06:09:14;;;;;;;0.00;0.00;;;-2.30;99.90;;;;;;4973413;28;20039;-86
2021/01/10 06:11:40;;;;;;;0.00;0.00;;;-2.20;99.90;;;;;;4971713;28;20404;-87
2021/01/10 06:14:06;;;;;;;0.00;0.00;;;-2.10;99.90;;;;;;4971629;28;20043;-86
2021/01/10 06:16:36;;;;;;;0.00;0.00;;;-1.90;99.90;;;;;;4979703;28;20052;-87
2021/01/10 06:19:05;;;;;;;0.00;0.00;;;-1.80;99.90;;;;;;4974622;28;20095;-87
2021/01/10 06:21:33;;;;;;;0.00;0.00;;;-1.70;99.90;;;;;;4990751;28;20249;-87
2021/01/10 06:24:03;;;;;;;0.00;0.00;;;-1.70;99.90;;;;;;4974380;28;20049;-85
2021/01/10 06:26:33;;;;;;;0.00;0.00;;;-1.60;99.90;;;;;;4959638;28;20039;-88
2021/01/10 06:28:58;;;;;;;0.00;0.00;;;-1.50;99.90;;;;;;4970343;28;20141;-87
2021/01/10 06:31:31;;;;;;;0.00;0.00;;;-1.50;99.90;;;;;;4971261;28;20062;-86
2021/01/10 06:33:58;;;;;;;0.00;0.00;;;-1.40;99.90;;;;;;4986185;28;20046;-86
2021/01/10 06:36:25;;;;;;;0.00;0.00;;;-1.50;99.90;;;;;;4994689;28;20103;-86
2021/01/10 06:38:58;;;;;;;0.00;0.00;;;-1.50;99.90;;;;;;5010738;28;20050;-86
2021/01/10 06:42:13;;;;;;;0.00;0.00;;;-1.50;99.90;;;;;;5010769;28;20041;-87
2021/01/10 06:44:51;;;;;;;0.00;0.00;;;-1.50;99.90;;;;;;4988726;28;20057;-87
2021/01/10 06:47:19;;;;;;;0.00;0.00;;;-1.30;99.90;;;;;;4994558;28;20045;-87
2021/01/10 06:49:45;;;;;;;0.00;0.00;;;-1.40;99.90;;;;;;4994487;28;20030;-87
2021/01/10 06:52:11;;;;;;;0.00;0.00;;;-1.20;99.90;;;;;;4994428;28;20041;-87
2021/01/10 06:57:06;;;;;;;0.00;0.00;;;-1.30;99.90;;;;;;5041640;28;20413;-85
2021/01/10 06:59:56;;;;;;;0.00;0.00;;;-1.30;99.90;;;;;;5027292;28;20041;-85
2021/01/10 07:02:22;;;;;;;0.00;0.00;;;-1.30;99.90;;;;;;5027391;28;20038;-85
2021/01/10 07:04:57;;;;;;;0.38;0.38;;;-1.30;99.90;;;;;;5027428;28;20046;-87
2021/01/10 07:07:37;;;;;;;0.00;0.00;;;-1.20;99.90;;;;;;5043838;28;20071;-85
2021/01/10 07:10:07;;;;;;;;;;;-1.30;99.90;;;;;;5027516;28;20105;-84
2021/01/10 07:12:33;;;;;;;0.00;0.00;;;-1.30;99.90;;;;;;5027026;28;19916;-84
2021/01/10 07:15:17;;;;;;;0.00;0.00;;;-1.40;99.90;;;;;;5010697;28;20042;-85
2021/01/10 07:18:06;;;;;;;0.00;0.00;;;-1.30;99.90;;;;;;5044997;28;20094;-86
2021/01/10 07:20:39;;;;;;;0.00;0.00;;;-1.10;99.90;;;;;;5030218;28;20040;-87
2021/01/10 07:23:24;;;;;;;0.00;0.00;;;-1.20;99.90;;;;;;5030088;28;20041;-86
2021/01/10 07:25:49;;;;;;;0.00;0.00;;;-1.20;99.90;;;;;;5029699;28;20259;-86
2021/01/10 07:28:35;;;;;;;0.00;0.00;;;-1.10;99.90;;;;;;5029973;28;20287;-85
2021/01/10 07:31:20;;;;;;;0.00;0.00;;;-1.00;99.90;;;;;;5020151;28;20065;-85
2021/01/10 07:33:47;;;;;;;0.00;0.00;;;-0.90;99.90;;;;;;5026512;28;20049;-85
2021/01/10 07:36:14;;;;;;;0.00;0.00;;;-0.90;99.90;;;;;;5010268;28;20054;-85
2021/01/10 07:38:40;;;;;;;0.00;0.00;;;-0.90;99.90;;;;;;4993634;28;20057;-86
2021/01/10 07:41:27;;;;;;;0.00;0.00;;;-0.90;99.90;;;;;;5009806;28;20038;-86
2021/01/10 07:43:56;;;;;;;0.00;0.00;;;-0.90;99.90;;;;;;5009940;28;20042;-84
2021/01/10 07:46:53;;;;;;;0.00;0.00;;;-1.00;99.90;;;;;;4993727;28;20081;-86
2021/01/10 07:49:24;;;;;;;0.00;0.00;;;-0.90;99.90;;;;;;5009175;28;20076;-87
2021/01/10 07:51:50;;;;;;;0.00;0.00;;;-0.80;99.90;;;;;;5009682;28;20100;-86
2021/01/10 07:54:16;;;;;;;0.00;0.00;;;-0.90;99.90;;;;;;5026044;28;20049;-87
2021/01/10 07:56:41;;;;;;;0.00;0.00;;;-0.90;99.90;;;;;;5023743;28;20493;-86
2021/01/10 07:59:15;;;;;;;0.00;0.00;;;-0.90;99.90;;;;;;5012830;28;20065;-88
2021/01/10 08:01:51;;;;;;;0.00;0.00;;;-0.80;99.90;;;;;;5012693;28;20037;-86
2021/01/10 08:04:33;;;;;;;0.00;0.00;;;-0.70;99.90;;;;;;5012506;28;20048;-86
2021/01/10 08:07:00;;;;;;;0.00;0.00;;;-0.80;99.90;;;;;;5012191;28;20037;-86
2021/01/10 08:09:31;;;;;;;2.05;1.95;;;-0.70;99.90;;;;;;5028618;28;20067;-87
2021/01/10 08:11:58;;;;;;;0.00;0.00;;;-0.70;99.90;;;;;;5011749;28;20041;-86
2021/01/10 08:14:23;;;;;;;0.00;0.00;;;-0.70;99.90;;;;;;5011365;28;20186;-86
2021/01/10 08:16:49;;;;;;;0.00;0.00;;;-0.70;99.90;;;;;;5022797;28;20041;-86
2021/01/10 08:19:15;;;;;;;0.47;0.47;;;-0.70;99.90;;;;;;5049437;28;20060;-86
2021/01/10 08:21:41;;;;;;;0.00;0.00;;;-0.60;99.90;;;;;;5033070;28;20041;-86
2021/01/10 08:24:07;;;;;;;0.00;0.00;;;-0.50;99.90;;;;;;5031630;28;20048;-87
2021/01/10 08:26:40;;;;;;;0.00;0.00;;;-0.40;99.90;;;;;;5047863;28;20037;-86
2021/01/10 08:29:07;;;;;;;0.00;0.00;;;-0.40;99.90;;;;;;5014261;28;20045;-86
2021/01/10 08:31:34;;;;;;;0.00;0.00;;;-0.30;99.90;;;;;;5027891;28;20052;-85
2021/01/10 08:34:06;;;;;;;0.00;0.00;;;-0.30;99.90;;;;;;5011588;28;20041;-87
2021/01/10 08:36:33;;;;;;;0.00;0.00;;;-0.40;99.90;;;;;;5011109;28;20041;-85
2021/01/10 08:39:08;;;;;;;0.00;0.00;;;-0.30;99.90;;;;;;5011472;28;20064;-85
2021/01/10 08:41:40;;;;;;;0.00;0.00;;;-0.30;99.90;;;;;;5027678;28;20411;-86
2021/01/10 08:44:16;;;;;;;0.00;0.00;;;-0.30;99.90;;;;;;4991914;28;20052;-86
2021/01/10 08:46:47;;;;;;;0.00;0.00;;;-0.30;99.90;;;;;;5008241;28;20045;-86
2021/01/10 08:49:23;;;;;;;0.00;0.00;;;-0.20;99.90;;;;;;5008317;28;20129;-88
2021/01/10 08:51:49;;;;;;;0.00;0.00;;;-0.20;99.90;;;;;;5034682;28;20038;-86
2021/01/10 08:54:16;;;;;;;0.00;0.00;;;-0.20;99.90;;;;;;5027509;28;20139;-84
2021/01/10 08:56:43;;;;;;;0.00;0.00;;;-0.10;99.90;;;;;;5006016;28;20058;-86
2021/01/10 08:59:11;;;;;;;0.00;0.00;;;-0.10;99.90;;;;;;5024390;28;20061;-86
2021/01/10 09:01:37;;;;;;;0.00;0.00;;;-0.10;99.90;;;;;;5023626;28;20038;-86
2021/01/10 09:04:08;;;;;;;0.73;0.73;;;-0.10;99.90;;;;;;5007840;28;20073;-85
2021/01/10 09:06:58;;;;;;;0.00;0.00;;;0.00;99.90;;;;;;5024459;28;20042;-86
2021/01/10 09:09:51;;;;;;;0.00;0.00;;;0.00;99.90;;;;;;5024795;28;20481;-85
2021/01/10 09:12:50;;;;;;;0.00;0.00;;;0.10;99.90;;;;;;5024847;28;20117;-85
2021/01/10 09:15:33;;;;;;;0.00;0.00;;;0.10;99.90;;;;;;5023069;28;20041;-86
2021/01/10 09:18:05;;;;;;;0.00;0.00;;;0.10;99.90;;;;;;5024300;28;20057;-85
2021/01/10 09:20:38;;;;;;;0.00;0.00;;;0.10;99.90;;;;;;5007782;28;20045;-87
2021/01/10 09:23:09;;;;;;;0.40;0.40;;;0.20;99.90;;;;;;5007530;28;20042;-86
2021/01/10 09:25:35;;;;;;;0.00;0.00;;;0.20;99.90;;;;;;5007701;28;20049;-86
2021/01/10 09:28:07;;;;;;;0.00;0.00;;;0.20;99.90;;;;;;5007729;28;20042;-84
2021/01/10 09:30:34;;;;;;;0.00;0.00;;;0.30;99.90;;;;;;5007410;28;20037;-87
2021/01/10 09:33:02;;;;;;;0.00;0.00;;;0.30;99.90;;;;;;4991543;28;20042;-84
2021/01/10 09:35:36;;;;;;;0.00;0.00;;;0.40;99.90;;;;;;4991268;28;20100;-84
2021/01/10 09:38:07;;;;;;;0.00;0.00;;;0.40;99.90;;;;;;4991627;28;20057;-85
2021/01/10 09:40:33;;;;;;;0.00;0.00;;;0.40;99.90;;;;;;5024117;28;20053;-84
2021/01/10 09:42:59;;;;;;;0.00;0.00;;;0.50;99.90;;;;;;5007207;28;20046;-84
2021/01/10 09:45:34;;;;;;;0.00;0.00;;;0.50;99.90;;;;;;5023957;28;20042;-84
2021/01/10 09:48:01;;;;;;;0.00;0.00;;;0.50;99.90;;;;;;4991423;28;20049;-85
2021/01/10 09:50:27;;;;;;;0.00;0.00;;;0.60;99.90;;;;;;4991337;28;20049;-84
2021/01/10 09:52:53;;;;;;;4.20;3.45;;;0.60;99.90;;;;;;4991213;28;20042;-84
2021/01/10 09:55:25;;;;;;;0.20;0.10;;;0.60;99.90;;;;;;5023791;28;20046;-84
2021/01/10 09:57:52;;;;;;;0.00;0.00;;;0.70;99.90;;;;;;5026246;28;20061;-84
2021/01/10 10:00:18;;;;;;;0.00;0.00;;;0.70;99.90;;;;;;5010565;28;20038;-84
2021/01/10 10:02:47;;;;;;;0.10;0.10;;;0.80;99.90;;;;;;5027094;28;20045;-84
2021/01/10 10:05:16;;;;;;;0.00;0.00;;;0.90;99.90;;;;;;5010694;28;20038;-83
2021/01/10 10:07:46;;;;;;;13.40;6.75;;;0.80;99.90;;;;;;5010485;28;20038;-83
2021/01/10 10:10:25;;;;;;;1.45;1.20;;;0.90;99.90;;;;;;5010497;28;20038;-86
2021/01/10 10:13:05;;;;;;;0.00;0.00;;;0.90;99.90;;;;;;5012341;28;20041;-83
2021/01/10 10:15:53;;;;;;;;;;;0.90;99.90;;;;;;5030900;28;20045;-85
2021/01/10 10:18:23;;;;;;;7.13;2.05;;;0.90;99.90;;;;;;5034042;28;19948;-86
2021/01/10 10:20:49;;;;;;;0.73;0.68;;;1.00;99.90;;;;;;5033731;28;20033;-83
2021/01/10 10:23:15;;;;;;;0.00;0.00;;;1.10;99.90;;;;;;5050381;28;20045;-83
2021/01/10 10:25:42;;;;;;;0.10;0.10;;;1.20;99.90;;;;;;5034704;28;20041;-83
2021/01/10 10:28:08;;;;;;;0.00;0.00;;;1.20;99.90;;;;;;5033171;28;20068;-84
2021/01/10 10:30:35;;;;;;;1.00;1.00;;;1.30;99.90;;;;;;5027375;28;20040;-84
2021/01/10 10:33:02;;;;;;;0.00;0.00;;;1.30;99.90;;;;;;5013752;28;20045;-83
2021/01/10 10:35:28;;;;;;;0.00;0.00;;;1.40;99.90;;;;;;5013585;28;20041;-84
2021/01/10 10:37:54;;;;;;;0.00;0.00;;;1.40;99.90;;;;;;5013658;28;20049;-88
2021/01/10 10:40:20;;;;;;;0.10;0.10;;;1.50;99.90;;;;;;5030008;28;20132;-85
2021/01/10 10:42:46;;;;;;;0.00;0.00;;;1.50;99.90;;;;;;5029773;28;20128;-86
2021/01/10 10:45:12;;;;;;;3.33;3.17;;;1.50;99.90;;;;;;5029693;28;20134;-86
2021/01/10 10:47:38;;;;;;;0.00;0.00;;;1.60;99.90;;;;;;5030019;28;20053;-86
2021/01/10 10:50:06;;;;;;;0.00;0.00;;;1.60;99.90;;;;;;5013484;28;20118;-86
2021/01/10 10:52:31;;;;;;;0.00;0.00;;;1.60;99.90;;;;;;5013497;28;20041;-84
2021/01/10 10:54:57;;;;;;;0.00;0.00;;;1.60;99.90;;;;;;5013089;28;20073;-84
2021/01/10 10:57:23;;;;;;;0.08;0.08;;;1.60;99.90;;;;;;5029002;28;20045;-85
2021/01/10 10:59:48;;;;;;;0.00;0.00;;;1.70;99.90;;;;;;5029351;28;20056;-84
2021/01/10 11:02:15;;;;;;;1.00;1.00;;;1.70;99.90;;;;;;5013668;28;20053;-86
2021/01/10 11:04:42;;;;;;;0.47;0.47;;;1.70;99.90;;;;;;5013545;28;20037;-83
2021/01/10 11:07:09;;;;;;;1.25;1.25;;;1.70;99.90;;;;;;5013280;28;20045;-84
2021/01/10 11:09:35;;;;;;;0.00;0.00;;;1.80;99.90;;;;;;5013238;28;20048;-86
2021/01/10 11:12:01;;;;;;;0.00;0.00;;;1.90;99.90;;;;;;5012893;28;20124;-86
2021/01/10 11:14:27;;;;;;;0.00;0.00;;;1.90;99.90;;;;;;5012985;28;20059;-83
2021/01/10 11:16:53;;;;;;;0.00;0.00;;;1.90;99.90;;;;;;5024293;28;20127;-84
2021/01/10 11:19:20;;;;;;;0.00;0.00;;;2.10;99.90;;;;;;5049207;28;20075;-85
2021/01/10 11:21:48;;;;;;;0.00;0.00;;;2.30;99.90;;;;;;5031780;28;20033;-83
2021/01/10 11:24:15;;;;;;;0.03;0.03;;;2.40;99.90;;;;;;5031381;28;20139;-85
2021/01/10 11:26:43;;;;;;;0.00;0.00;;;2.50;99.90;;;;;;5065003;28;20029;-83
2021/01/10 11:29:09;;;;;;;0.10;0.10;;;2.50;99.90;;;;;;5032088;28;20040;-85
2021/01/10 11:31:36;;;;;;;1.55;1.55;;;2.60;99.90;;;;;;5017744;28;20396;-85
2021/01/10 11:34:07;;;;;;;0.00;0.00;;;2.90;99.90;;;;;;5012841;28;20037;-84
2021/01/10 11:36:33;;;;;;;0.00;0.00;;;2.80;99.90;;;;;;5013229;28;20052;-85
2021/01/10 11:38:58;;;;;;;0.35;0.35;;;2.90;99.90;;;;;;5012376;28;20049;-85
2021/01/10 11:41:25;;;;;;;0.00;0.00;;;2.90;99.90;;;;;;5028545;28;20042;-84
2021/01/10 11:43:51;;;;;;;0.10;0.10;;;2.80;99.90;;;;;;5012409;28;20121;-83
2021/01/10 11:46:19;;;;;;;0.00;0.00;;;2.90;99.90;;;;;;5012101;28;20045;-84
2021/01/10 11:48:44;;;;;;;0.00;0.00;;;3.00;99.90;;;;;;5028928;28;20037;-85
2021/01/10 11:51:11;;;;;;;40.65;6.78;;;3.00;99.90;;;;;;5029022;28;20046;-86
2021/01/10 11:53:38;;;;;;;0.00;0.00;;;3.20;99.90;;;;;;5012371;28;20061;-84
2021/01/10 11:56:04;;;;;;;0.00;0.00;;;3.30;99.90;;;;;;5011009;28;20180;-85
2021/01/10 11:58:29;;;;;;;0.00;0.00;;;3.40;99.90;;;;;;5027651;28;20402;-85
2021/01/10 12:00:58;;;;;;;0.65;0.65;;;3.40;99.90;;;;;;5011769;28;20185;-83
2021/01/10 12:03:25;;;;;;;4.50;1.55;;;3.50;99.90;;;;;;5012218;28;20050;-87
2021/01/10 12:05:51;;;;;;;0.00;0.00;;;3.40;99.90;;;;;;5029215;28;20477;-84
2021/01/10 12:08:18;;;;;;;0.10;0.10;;;3.40;99.90;;;;;;5028412;28;20138;-84
2021/01/10 12:10:43;;;;;;;0.00;0.00;;;3.50;99.90;;;;;;5027835;28;20037;-84
2021/01/10 12:13:09;;;;;;;0.00;0.00;;;3.50;99.90;;;;;;5029081;28;20050;-85
2021/01/10 12:15:40;;;;;;;0.00;0.00;;;3.60;99.90;;;;;;5028785;28;20037;-85
2021/01/10 12:18:06;;;;;;;0.00;0.00;;;3.50;99.90;;;;;;5012680;28;20057;-84
2021/01/10 12:20:32;;;;;;;0.00;0.00;;;3.60;99.90;;;;;;5029026;28;20030;-85
2021/01/10 12:22:58;;;;;;;0.00;0.00;;;3.60;99.90;;;;;;5028771;28;20055;-87
2021/01/10 12:25:25;;;;;;;3.75;2.90;;;3.70;99.90;;;;;;5011929;28;20072;-84
2021/01/10 12:27:51;;;;;;;1.20;0.52;;;3.80;99.90;;;;;;5012388;28;20060;-84
2021/01/10 12:30:17;;;;;;;0.80;0.80;;;4.00;99.90;;;;;;5045271;28;20090;-85
2021/01/10 12:32:43;;;;;;;0.00;0.00;;;4.00;99.90;;;;;;5012399;28;20042;-84
2021/01/10 12:35:16;;;;;;;0.00;0.00;;;4.10;99.90;;;;;;5028650;28;20108;-87
2021/01/10 12:37:43;;;;;;;0.00;0.00;;;4.20;99.90;;;;;;5028669;28;20045;-85
2021/01/10 12:40:12;;;;;;;0.00;0.00;;;4.10;99.90;;;;;;5012051;28;20041;-84
2021/01/10 12:42:38;;;;;;;0.00;0.00;;;4.20;99.90;;;;;;5027622;28;20071;-85
2021/01/10 12:45:06;;;;;;;0.00;0.00;;;4.20;99.90;;;;;;5027700;28;20042;-84
2021/01/10 12:47:31;;;;;;;0.03;0.03;;;4.30;99.90;;;;;;5027786;28;20046;-85
2021/01/10 12:49:57;;;;;;;0.00;0.00;;;4.40;99.90;;;;;;5028049;28;20050;-83
2021/01/10 12:52:23;;;;;;;0.00;0.00;;;4.50;99.90;;;;;;5027614;28;20076;-85
2021/01/10 12:54:48;;;;;;;0.00;0.00;;;4.60;99.90;;;;;;5027542;28;20048;-84
2021/01/10 12:57:14;;;;;;;0.00;0.00;;;4.60;99.90;;;;;;5027452;28;20057;-84
2021/01/10 12:59:40;;;;;;;0.00;0.00;;;4.70;99.90;;;;;;5027713;28;20043;-84
2021/01/10 13:02:06;;;;;;;0.00;0.00;;;4.60;99.90;;;;;;5027590;28;20401;-84